sensor_id;sensor_type;location;lat;lon;timestamp;P1;durP1;ratioP1;P2;durP2;ratioP2
32365;SDS011;18837;46.832;16.838;2023-07-08T00:02:24;2.50;;;2.30;;
32365;SDS011;18837;46.832;16.838;2023-07-08T00:04:50;3.93;;;2.23;;
32365;SDS011;18837;46.832;16.838;2023-07-08T00:07:16;3.17;;;2.40;;
32365;SDS011;18837;46.832;16.838;2023-07-08T00:09:45;4.03;;;2.50;;
32365;SDS011;18837;46.832;16.838;2023-07-08T00:12:11;2.47;;;2.27;;
32365;SDS011;18837;46.832;16.838;2023-07-08T00:14:37;2.93;;;2.53;;
32365;SDS011;18837;46.832;16.838;2023-07-08T00:17:07;4.20;;;2.70;;
32365;SDS011;18837;46.832;16.838;2023-07-08T00:19:37;3.00;;;2.67;;
32365;SDS011;18837;46.832;16.838;2023-07-08T00:22:13;3.37;;;2.50;;
32365;SDS011;18837;46.832;16.838;2023-07-08T00:24:41;3.07;;;2.60;;
32365;SDS011;18837;46.832;16.838;2023-07-08T00:27:08;3.73;;;2.57;;
32365;SDS011;18837;46.832;16.838;2023-07-08T00:29:40;3.53;;;2.30;;
32365;SDS011;18837;46.832;16.838;2023-07-08T00:32:13;2.80;;;2.50;;
32365;SDS011;18837;46.832;16.838;2023-07-08T00:34:40;4.13;;;2.60;;
32365;SDS011;18837;46.832;16.838;2023-07-08T00:37:12;3.47;;;2.47;;
32365;SDS011;18837;46.832;16.838;2023-07-08T00:39:39;3.40;;;2.63;;
32365;SDS011;18837;46.832;16.838;2023-07-08T00:42:18;4.10;;;2.90;;
32365;SDS011;18837;46.832;16.838;2023-07-08T00:44:46;2.60;;;2.40;;
32365;SDS011;18837;46.832;16.838;2023-07-08T00:47:14;4.03;;;2.43;;
32365;SDS011;18837;46.832;16.838;2023-07-08T00:49:45;2.73;;;2.47;;
32365;SDS011;18837;46.832;16.838;2023-07-08T00:52:25;2.30;;;2.10;;
32365;SDS011;18837;46.832;16.838;2023-07-08T00:54:58;2.90;;;2.50;;
32365;SDS011;18837;46.832;16.838;2023-07-08T00:57:36;4.50;;;2.57;;
32365;SDS011;18837;46.832;16.838;2023-07-08T01:00:12;3.63;;;2.70;;
32365;SDS011;18837;46.832;16.838;2023-07-08T01:02:46;3.50;;;2.80;;
32365;SDS011;18837;46.832;16.838;2023-07-08T01:05:17;2.87;;;2.47;;
32365;SDS011;18837;46.832;16.838;2023-07-08T01:07:49;3.33;;;2.50;;
32365;SDS011;18837;46.832;16.838;2023-07-08T01:10:26;2.77;;;2.57;;
32365;SDS011;18837;46.832;16.838;2023-07-08T01:12:59;3.87;;;2.90;;
32365;SDS011;18837;46.832;16.838;2023-07-08T01:15:30;3.30;;;2.63;;
32365;SDS011;18837;46.832;16.838;2023-07-08T01:18:00;3.03;;;2.73;;
32365;SDS011;18837;46.832;16.838;2023-07-08T01:20:27;3.00;;;2.40;;
32365;SDS011;18837;46.832;16.838;2023-07-08T01:22:53;3.57;;;3.10;;
32365;SDS011;18837;46.832;16.838;2023-07-08T01:25:18;9.27;;;3.30;;
32365;SDS011;18837;46.832;16.838;2023-07-08T01:27:47;5.47;;;2.70;;
32365;SDS011;18837;46.832;16.838;2023-07-08T01:30:17;3.87;;;2.77;;
32365;SDS011;18837;46.832;16.838;2023-07-08T01:32:45;3.63;;;2.80;;
32365;SDS011;18837;46.832;16.838;2023-07-08T01:35:14;4.80;;;2.50;;
32365;SDS011;18837;46.832;16.838;2023-07-08T01:37:44;3.20;;;2.70;;
32365;SDS011;18837;46.832;16.838;2023-07-08T01:40:23;3.40;;;2.50;;
32365;SDS011;18837;46.832;16.838;2023-07-08T01:42:52;3.47;;;2.70;;
32365;SDS011;18837;46.832;16.838;2023-07-08T01:45:19;3.97;;;2.93;;
32365;SDS011;18837;46.832;16.838;2023-07-08T01:47:51;4.70;;;2.67;;
32365;SDS011;18837;46.832;16.838;2023-07-08T01:50:19;3.30;;;2.60;;
32365;SDS011;18837;46.832;16.838;2023-07-08T01:52:47;3.97;;;2.90;;
32365;SDS011;18837;46.832;16.838;2023-07-08T01:55:14;3.17;;;2.83;;
32365;SDS011;18837;46.832;16.838;2023-07-08T01:57:41;2.93;;;2.60;;
32365;SDS011;18837;46.832;16.838;2023-07-08T02:00:07;4.13;;;2.90;;
32365;SDS011;18837;46.832;16.838;2023-07-08T02:02:33;3.50;;;2.90;;
32365;SDS011;18837;46.832;16.838;2023-07-08T02:04:59;2.80;;;2.60;;
32365;SDS011;18837;46.832;16.838;2023-07-08T02:07:25;3.23;;;2.57;;
32365;SDS011;18837;46.832;16.838;2023-07-08T02:09:50;2.90;;;2.70;;
32365;SDS011;18837;46.832;16.838;2023-07-08T02:12:16;3.43;;;2.80;;
32365;SDS011;18837;46.832;16.838;2023-07-08T02:14:42;3.87;;;2.87;;
32365;SDS011;18837;46.832;16.838;2023-07-08T02:17:07;2.97;;;2.63;;
32365;SDS011;18837;46.832;16.838;2023-07-08T02:19:33;3.33;;;2.63;;
32365;SDS011;18837;46.832;16.838;2023-07-08T02:21:59;3.33;;;3.03;;
32365;SDS011;18837;46.832;16.838;2023-07-08T02:24:25;3.27;;;2.67;;
32365;SDS011;18837;46.832;16.838;2023-07-08T02:26:51;3.97;;;2.50;;
32365;SDS011;18837;46.832;16.838;2023-07-08T02:29:17;3.50;;;2.60;;
32365;SDS011;18837;46.832;16.838;2023-07-08T02:31:43;3.00;;;2.70;;
32365;SDS011;18837;46.832;16.838;2023-07-08T02:34:08;4.23;;;2.73;;
32365;SDS011;18837;46.832;16.838;2023-07-08T02:36:34;5.10;;;2.90;;
32365;SDS011;18837;46.832;16.838;2023-07-08T02:39:01;3.53;;;2.70;;
32365;SDS011;18837;46.832;16.838;2023-07-08T02:41:27;3.03;;;2.40;;
32365;SDS011;18837;46.832;16.838;2023-07-08T02:43:52;2.63;;;2.40;;
32365;SDS011;18837;46.832;16.838;2023-07-08T02:46:18;2.80;;;2.50;;
32365;SDS011;18837;46.832;16.838;2023-07-08T02:48:43;4.20;;;2.60;;
32365;SDS011;18837;46.832;16.838;2023-07-08T02:51:09;3.00;;;2.40;;
32365;SDS011;18837;46.832;16.838;2023-07-08T02:53:36;3.27;;;2.60;;
32365;SDS011;18837;46.832;16.838;2023-07-08T02:56:02;4.57;;;2.70;;
32365;SDS011;18837;46.832;16.838;2023-07-08T02:58:28;3.03;;;2.57;;
32365;SDS011;18837;46.832;16.838;2023-07-08T03:00:55;3.10;;;2.67;;
32365;SDS011;18837;46.832;16.838;2023-07-08T03:03:23;3.73;;;2.67;;
32365;SDS011;18837;46.832;16.838;2023-07-08T03:06:00;3.53;;;2.67;;
32365;SDS011;18837;46.832;16.838;2023-07-08T03:08:27;3.07;;;2.50;;
32365;SDS011;18837;46.832;16.838;2023-07-08T03:10:55;5.37;;;3.40;;
32365;SDS011;18837;46.832;16.838;2023-07-08T03:13:22;3.97;;;2.90;;
32365;SDS011;18837;46.832;16.838;2023-07-08T03:15:49;3.10;;;2.80;;
32365;SDS011;18837;46.832;16.838;2023-07-08T03:18:14;2.93;;;2.60;;
32365;SDS011;18837;46.832;16.838;2023-07-08T03:20:40;3.50;;;2.60;;
32365;SDS011;18837;46.832;16.838;2023-07-08T03:23:09;3.37;;;2.70;;
32365;SDS011;18837;46.832;16.838;2023-07-08T03:25:35;2.77;;;2.50;;
32365;SDS011;18837;46.832;16.838;2023-07-08T03:28:02;4.37;;;2.73;;
32365;SDS011;18837;46.832;16.838;2023-07-08T03:30:31;2.63;;;2.43;;
32365;SDS011;18837;46.832;16.838;2023-07-08T03:32:58;3.07;;;2.70;;
32365;SDS011;18837;46.832;16.838;2023-07-08T03:35:24;2.97;;;2.67;;
32365;SDS011;18837;46.832;16.838;2023-07-08T03:37:51;2.83;;;2.53;;
32365;SDS011;18837;46.832;16.838;2023-07-08T03:40:17;3.00;;;2.57;;
32365;SDS011;18837;46.832;16.838;2023-07-08T03:42:42;4.33;;;3.00;;
32365;SDS011;18837;46.832;16.838;2023-07-08T03:45:08;3.07;;;2.50;;
32365;SDS011;18837;46.832;16.838;2023-07-08T03:47:35;4.47;;;3.03;;
32365;SDS011;18837;46.832;16.838;2023-07-08T03:50:01;3.33;;;2.83;;
32365;SDS011;18837;46.832;16.838;2023-07-08T03:52:27;3.57;;;3.13;;
32365;SDS011;18837;46.832;16.838;2023-07-08T03:54:53;2.73;;;2.53;;
32365;SDS011;18837;46.832;16.838;2023-07-08T03:57:19;5.20;;;3.20;;
32365;SDS011;18837;46.832;16.838;2023-07-08T03:59:45;3.40;;;2.83;;
32365;SDS011;18837;46.832;16.838;2023-07-08T04:02:11;3.13;;;2.83;;
32365;SDS011;18837;46.832;16.838;2023-07-08T04:04:37;3.07;;;2.77;;
32365;SDS011;18837;46.832;16.838;2023-07-08T04:07:04;3.70;;;2.93;;
32365;SDS011;18837;46.832;16.838;2023-07-08T04:09:30;4.10;;;3.20;;
32365;SDS011;18837;46.832;16.838;2023-07-08T04:11:56;5.73;;;2.93;;
32365;SDS011;18837;46.832;16.838;2023-07-08T04:14:23;3.37;;;2.90;;
32365;SDS011;18837;46.832;16.838;2023-07-08T04:19:21;3.50;;;2.70;;
32365;SDS011;18837;46.832;16.838;2023-07-08T04:21:48;3.53;;;2.70;;
32365;SDS011;18837;46.832;16.838;2023-07-08T04:24:14;3.63;;;3.07;;
32365;SDS011;18837;46.832;16.838;2023-07-08T04:26:41;3.90;;;2.77;;
32365;SDS011;18837;46.832;16.838;2023-07-08T04:29:14;3.37;;;3.07;;
32365;SDS011;18837;46.832;16.838;2023-07-08T04:31:42;4.20;;;3.30;;
32365;SDS011;18837;46.832;16.838;2023-07-08T04:34:08;3.53;;;3.03;;
32365;SDS011;18837;46.832;16.838;2023-07-08T04:36:34;3.10;;;2.63;;
32365;SDS011;18837;46.832;16.838;2023-07-08T04:39:02;4.33;;;3.03;;
32365;SDS011;18837;46.832;16.838;2023-07-08T04:41:31;4.33;;;3.00;;
32365;SDS011;18837;46.832;16.838;2023-07-08T04:43:57;3.43;;;2.70;;
32365;SDS011;18837;46.832;16.838;2023-07-08T04:46:33;3.40;;;3.10;;
32365;SDS011;18837;46.832;16.838;2023-07-08T04:49:02;3.27;;;2.97;;
32365;SDS011;18837;46.832;16.838;2023-07-08T04:51:29;3.13;;;2.73;;
32365;SDS011;18837;46.832;16.838;2023-07-08T04:53:54;2.97;;;2.67;;
32365;SDS011;18837;46.832;16.838;2023-07-08T04:56:20;3.43;;;3.13;;
32365;SDS011;18837;46.832;16.838;2023-07-08T04:58:47;3.83;;;3.20;;
32365;SDS011;18837;46.832;16.838;2023-07-08T05:01:13;5.90;;;3.23;;
32365;SDS011;18837;46.832;16.838;2023-07-08T05:03:39;3.80;;;3.40;;
32365;SDS011;18837;46.832;16.838;2023-07-08T05:06:04;3.57;;;3.27;;
32365;SDS011;18837;46.832;16.838;2023-07-08T05:08:30;3.33;;;3.03;;
32365;SDS011;18837;46.832;16.838;2023-07-08T05:10:56;4.17;;;3.00;;
32365;SDS011;18837;46.832;16.838;2023-07-08T05:13:22;3.20;;;2.70;;
32365;SDS011;18837;46.832;16.838;2023-07-08T05:15:49;4.43;;;3.27;;
32365;SDS011;18837;46.832;16.838;2023-07-08T05:18:15;4.17;;;3.33;;
32365;SDS011;18837;46.832;16.838;2023-07-08T05:20:41;3.50;;;3.20;;
32365;SDS011;18837;46.832;16.838;2023-07-08T05:23:08;4.13;;;3.20;;
32365;SDS011;18837;46.832;16.838;2023-07-08T05:25:34;3.53;;;3.17;;
32365;SDS011;18837;46.832;16.838;2023-07-08T05:28:00;4.17;;;2.83;;
32365;SDS011;18837;46.832;16.838;2023-07-08T05:30:26;4.77;;;3.10;;
32365;SDS011;18837;46.832;16.838;2023-07-08T05:32:52;3.70;;;3.30;;
32365;SDS011;18837;46.832;16.838;2023-07-08T05:35:18;4.30;;;3.10;;
32365;SDS011;18837;46.832;16.838;2023-07-08T05:37:44;3.50;;;3.17;;
32365;SDS011;18837;46.832;16.838;2023-07-08T05:40:12;3.40;;;3.07;;
32365;SDS011;18837;46.832;16.838;2023-07-08T05:42:38;3.50;;;3.20;;
32365;SDS011;18837;46.832;16.838;2023-07-08T05:45:04;3.80;;;3.20;;
32365;SDS011;18837;46.832;16.838;2023-07-08T05:47:31;5.03;;;3.20;;
32365;SDS011;18837;46.832;16.838;2023-07-08T05:49:57;3.63;;;3.33;;
32365;SDS011;18837;46.832;16.838;2023-07-08T05:52:23;3.50;;;3.20;;
32365;SDS011;18837;46.832;16.838;2023-07-08T05:54:49;8.93;;;4.03;;
32365;SDS011;18837;46.832;16.838;2023-07-08T05:57:14;7.13;;;3.80;;
32365;SDS011;18837;46.832;16.838;2023-07-08T05:59:41;6.80;;;3.77;;
32365;SDS011;18837;46.832;16.838;2023-07-08T06:02:08;5.87;;;3.90;;
32365;SDS011;18837;46.832;16.838;2023-07-08T06:04:36;5.47;;;4.07;;
32365;SDS011;18837;46.832;16.838;2023-07-08T06:07:01;3.63;;;3.30;;
32365;SDS011;18837;46.832;16.838;2023-07-08T06:09:27;5.30;;;3.80;;
32365;SDS011;18837;46.832;16.838;2023-07-08T06:11:53;6.97;;;3.70;;
32365;SDS011;18837;46.832;16.838;2023-07-08T06:14:18;6.40;;;3.60;;
32365;SDS011;18837;46.832;16.838;2023-07-08T06:16:44;4.90;;;3.63;;
32365;SDS011;18837;46.832;16.838;2023-07-08T06:19:10;9.10;;;3.70;;
32365;SDS011;18837;46.832;16.838;2023-07-08T06:21:36;4.13;;;3.53;;
32365;SDS011;18837;46.832;16.838;2023-07-08T06:24:02;3.93;;;3.47;;
32365;SDS011;18837;46.832;16.838;2023-07-08T06:26:28;4.90;;;3.23;;
32365;SDS011;18837;46.832;16.838;2023-07-08T06:28:53;7.97;;;3.60;;
32365;SDS011;18837;46.832;16.838;2023-07-08T06:31:19;3.70;;;3.40;;
32365;SDS011;18837;46.832;16.838;2023-07-08T06:33:45;5.83;;;3.30;;
32365;SDS011;18837;46.832;16.838;2023-07-08T06:36:10;5.07;;;3.87;;
32365;SDS011;18837;46.832;16.838;2023-07-08T06:38:36;4.33;;;3.30;;
32365;SDS011;18837;46.832;16.838;2023-07-08T06:41:02;4.20;;;3.50;;
32365;SDS011;18837;46.832;16.838;2023-07-08T06:43:28;4.20;;;3.77;;
32365;SDS011;18837;46.832;16.838;2023-07-08T06:45:53;5.77;;;3.90;;
32365;SDS011;18837;46.832;16.838;2023-07-08T06:48:19;4.70;;;3.60;;
32365;SDS011;18837;46.832;16.838;2023-07-08T06:50:46;4.77;;;3.47;;
32365;SDS011;18837;46.832;16.838;2023-07-08T06:53:12;4.57;;;3.53;;
32365;SDS011;18837;46.832;16.838;2023-07-08T06:55:39;5.47;;;3.60;;
32365;SDS011;18837;46.832;16.838;2023-07-08T06:58:04;3.67;;;3.37;;
32365;SDS011;18837;46.832;16.838;2023-07-08T07:00:30;4.03;;;3.63;;
32365;SDS011;18837;46.832;16.838;2023-07-08T07:02:56;4.57;;;3.57;;
32365;SDS011;18837;46.832;16.838;2023-07-08T07:05:21;3.50;;;3.20;;
32365;SDS011;18837;46.832;16.838;2023-07-08T07:07:48;4.60;;;3.23;;
32365;SDS011;18837;46.832;16.838;2023-07-08T07:10:13;3.50;;;3.20;;
32365;SDS011;18837;46.832;16.838;2023-07-08T07:12:39;4.43;;;3.40;;
32365;SDS011;18837;46.832;16.838;2023-07-08T07:15:05;3.87;;;3.10;;
32365;SDS011;18837;46.832;16.838;2023-07-08T07:17:31;3.73;;;3.43;;
32365;SDS011;18837;46.832;16.838;2023-07-08T07:19:57;4.43;;;3.10;;
32365;SDS011;18837;46.832;16.838;2023-07-08T07:22:23;4.20;;;3.37;;
32365;SDS011;18837;46.832;16.838;2023-07-08T07:24:52;3.53;;;3.23;;
32365;SDS011;18837;46.832;16.838;2023-07-08T07:27:17;3.40;;;3.10;;
32365;SDS011;18837;46.832;16.838;2023-07-08T07:29:44;3.87;;;3.47;;
32365;SDS011;18837;46.832;16.838;2023-07-08T07:32:12;5.87;;;3.30;;
32365;SDS011;18837;46.832;16.838;2023-07-08T07:34:38;4.67;;;3.30;;
32365;SDS011;18837;46.832;16.838;2023-07-08T07:37:05;4.30;;;3.67;;
32365;SDS011;18837;46.832;16.838;2023-07-08T07:39:35;3.77;;;3.37;;
32365;SDS011;18837;46.832;16.838;2023-07-08T07:42:01;4.10;;;3.70;;
32365;SDS011;18837;46.832;16.838;2023-07-08T07:44:26;4.03;;;3.37;;
32365;SDS011;18837;46.832;16.838;2023-07-08T07:46:52;4.27;;;3.50;;
32365;SDS011;18837;46.832;16.838;2023-07-08T07:49:19;4.90;;;3.50;;
32365;SDS011;18837;46.832;16.838;2023-07-08T07:51:45;3.80;;;3.40;;
32365;SDS011;18837;46.832;16.838;2023-07-08T07:54:11;3.63;;;3.20;;
32365;SDS011;18837;46.832;16.838;2023-07-08T07:56:37;4.03;;;3.17;;
32365;SDS011;18837;46.832;16.838;2023-07-08T07:59:03;5.13;;;3.33;;
32365;SDS011;18837;46.832;16.838;2023-07-08T08:01:29;4.00;;;3.60;;
32365;SDS011;18837;46.832;16.838;2023-07-08T08:03:54;3.73;;;3.30;;
32365;SDS011;18837;46.832;16.838;2023-07-08T08:06:20;3.27;;;2.97;;
32365;SDS011;18837;46.832;16.838;2023-07-08T08:08:46;4.43;;;3.20;;
32365;SDS011;18837;46.832;16.838;2023-07-08T08:11:12;3.93;;;2.80;;
32365;SDS011;18837;46.832;16.838;2023-07-08T08:13:38;3.60;;;3.27;;
32365;SDS011;18837;46.832;16.838;2023-07-08T08:16:05;3.43;;;3.10;;
32365;SDS011;18837;46.832;16.838;2023-07-08T08:18:31;4.63;;;3.43;;
32365;SDS011;18837;46.832;16.838;2023-07-08T08:20:57;3.63;;;3.33;;
32365;SDS011;18837;46.832;16.838;2023-07-08T08:23:23;4.20;;;3.60;;
32365;SDS011;18837;46.832;16.838;2023-07-08T08:25:50;3.27;;;2.97;;
32365;SDS011;18837;46.832;16.838;2023-07-08T08:28:15;4.57;;;3.47;;
32365;SDS011;18837;46.832;16.838;2023-07-08T08:30:41;5.03;;;3.50;;
32365;SDS011;18837;46.832;16.838;2023-07-08T08:33:11;4.40;;;4.00;;
32365;SDS011;18837;46.832;16.838;2023-07-08T08:35:37;4.50;;;3.43;;
32365;SDS011;18837;46.832;16.838;2023-07-08T08:38:03;4.00;;;3.33;;
32365;SDS011;18837;46.832;16.838;2023-07-08T08:40:29;3.50;;;3.20;;
32365;SDS011;18837;46.832;16.838;2023-07-08T08:43:08;3.40;;;3.10;;
32365;SDS011;18837;46.832;16.838;2023-07-08T08:45:39;4.17;;;3.40;;
32365;SDS011;18837;46.832;16.838;2023-07-08T08:48:27;3.30;;;3.00;;
32365;SDS011;18837;46.832;16.838;2023-07-08T08:50:57;4.17;;;3.63;;
32365;SDS011;18837;46.832;16.838;2023-07-08T08:53:28;3.37;;;3.07;;
32365;SDS011;18837;46.832;16.838;2023-07-08T08:56:03;3.30;;;3.00;;
32365;SDS011;18837;46.832;16.838;2023-07-08T08:58:47;3.33;;;3.03;;
32365;SDS011;18837;46.832;16.838;2023-07-08T09:01:41;3.80;;;3.40;;
32365;SDS011;18837;46.832;16.838;2023-07-08T09:04:11;3.37;;;3.07;;
32365;SDS011;18837;46.832;16.838;2023-07-08T09:06:42;4.13;;;3.27;;
32365;SDS011;18837;46.832;16.838;2023-07-08T09:09:13;3.30;;;3.00;;
32365;SDS011;18837;46.832;16.838;2023-07-08T09:11:54;3.57;;;2.83;;
32365;SDS011;18837;46.832;16.838;2023-07-08T09:14:27;3.33;;;3.03;;
32365;SDS011;18837;46.832;16.838;2023-07-08T09:19:47;3.40;;;3.10;;
32365;SDS011;18837;46.832;16.838;2023-07-08T09:22:41;3.50;;;3.20;;
32365;SDS011;18837;46.832;16.838;2023-07-08T09:27:51;3.20;;;2.80;;
32365;SDS011;18837;46.832;16.838;2023-07-08T09:30:21;2.70;;;2.50;;
32365;SDS011;18837;46.832;16.838;2023-07-08T09:32:49;3.47;;;2.97;;
32365;SDS011;18837;46.832;16.838;2023-07-08T09:35:26;4.03;;;3.03;;
32365;SDS011;18837;46.832;16.838;2023-07-08T09:37:54;3.30;;;2.90;;
32365;SDS011;18837;46.832;16.838;2023-07-08T09:40:30;3.43;;;2.90;;
32365;SDS011;18837;46.832;16.838;2023-07-08T09:43:42;3.60;;;3.30;;
32365;SDS011;18837;46.832;16.838;2023-07-08T09:45:48;3.27;;;2.67;;
32365;SDS011;18837;46.832;16.838;2023-07-08T09:48:15;3.10;;;2.80;;
32365;SDS011;18837;46.832;16.838;2023-07-08T09:50:47;3.23;;;2.93;;
32365;SDS011;18837;46.832;16.838;2023-07-08T09:53:16;2.80;;;2.60;;
32365;SDS011;18837;46.832;16.838;2023-07-08T09:55:42;2.63;;;2.43;;
32365;SDS011;18837;46.832;16.838;2023-07-08T09:58:10;3.63;;;3.23;;
32365;SDS011;18837;46.832;16.838;2023-07-08T10:00:40;3.23;;;2.57;;
32365;SDS011;18837;46.832;16.838;2023-07-08T10:03:23;2.93;;;2.63;;
32365;SDS011;18837;46.832;16.838;2023-07-08T10:05:51;3.63;;;3.17;;
32365;SDS011;18837;46.832;16.838;2023-07-08T10:08:22;3.20;;;2.90;;
32365;SDS011;18837;46.832;16.838;2023-07-08T10:10:54;3.67;;;2.90;;
32365;SDS011;18837;46.832;16.838;2023-07-08T10:16:21;3.70;;;2.80;;
32365;SDS011;18837;46.832;16.838;2023-07-08T10:18:50;3.13;;;2.83;;
32365;SDS011;18837;46.832;16.838;2023-07-08T10:35:12;3.63;;;2.57;;
32365;SDS011;18837;46.832;16.838;2023-07-08T10:38:31;2.60;;;2.40;;
32365;SDS011;18837;46.832;16.838;2023-07-08T10:54:42;3.10;;;2.80;;
32365;SDS011;18837;46.832;16.838;2023-07-08T10:57:49;3.43;;;2.70;;
32365;SDS011;18837;46.832;16.838;2023-07-08T11:08:56;3.00;;;2.70;;
32365;SDS011;18837;46.832;16.838;2023-07-08T11:11:46;4.20;;;2.40;;
32365;SDS011;18837;46.832;16.838;2023-07-08T11:14:27;2.77;;;2.57;;
32365;SDS011;18837;46.832;16.838;2023-07-08T11:17:18;2.60;;;2.40;;
32365;SDS011;18837;46.832;16.838;2023-07-08T11:20:01;3.03;;;2.70;;
32365;SDS011;18837;46.832;16.838;2023-07-08T11:25:37;2.33;;;2.07;;
32365;SDS011;18837;46.832;16.838;2023-07-08T11:28:05;2.70;;;2.50;;
32365;SDS011;18837;46.832;16.838;2023-07-08T11:30:40;2.80;;;2.60;;
32365;SDS011;18837;46.832;16.838;2023-07-08T11:33:09;2.70;;;2.40;;
32365;SDS011;18837;46.832;16.838;2023-07-08T11:38:14;2.90;;;2.60;;
32365;SDS011;18837;46.832;16.838;2023-07-08T11:43:20;3.30;;;2.57;;
32365;SDS011;18837;46.832;16.838;2023-07-08T11:45:48;2.87;;;2.63;;
32365;SDS011;18837;46.832;16.838;2023-07-08T11:48:19;3.40;;;2.73;;
32365;SDS011;18837;46.832;16.838;2023-07-08T11:50:53;3.37;;;2.30;;
32365;SDS011;18837;46.832;16.838;2023-07-08T11:55:59;3.03;;;2.70;;
32365;SDS011;18837;46.832;16.838;2023-07-08T11:58:27;2.77;;;2.40;;
32365;SDS011;18837;46.832;16.838;2023-07-08T12:01:00;2.47;;;2.27;;
32365;SDS011;18837;46.832;16.838;2023-07-08T12:03:38;2.60;;;2.40;;
32365;SDS011;18837;46.832;16.838;2023-07-08T12:08:59;2.87;;;2.60;;
32365;SDS011;18837;46.832;16.838;2023-07-08T12:11:39;2.63;;;2.37;;
32365;SDS011;18837;46.832;16.838;2023-07-08T12:14:08;2.60;;;2.37;;
32365;SDS011;18837;46.832;16.838;2023-07-08T12:16:34;2.80;;;2.60;;
32365;SDS011;18837;46.832;16.838;2023-07-08T12:19:01;2.83;;;2.50;;
32365;SDS011;18837;46.832;16.838;2023-07-08T12:21:29;3.23;;;2.80;;
32365;SDS011;18837;46.832;16.838;2023-07-08T12:24:02;2.53;;;2.33;;
32365;SDS011;18837;46.832;16.838;2023-07-08T12:26:32;2.67;;;2.47;;
32365;SDS011;18837;46.832;16.838;2023-07-08T12:28:58;2.70;;;2.50;;
32365;SDS011;18837;46.832;16.838;2023-07-08T12:31:24;2.83;;;2.60;;
32365;SDS011;18837;46.832;16.838;2023-07-08T12:33:50;3.30;;;2.83;;
32365;SDS011;18837;46.832;16.838;2023-07-08T12:36:18;2.57;;;2.37;;
32365;SDS011;18837;46.832;16.838;2023-07-08T12:38:46;3.03;;;2.60;;
32365;SDS011;18837;46.832;16.838;2023-07-08T12:41:16;2.83;;;2.63;;
32365;SDS011;18837;46.832;16.838;2023-07-08T12:43:44;3.20;;;2.73;;
32365;SDS011;18837;46.832;16.838;2023-07-08T12:46:11;5.07;;;3.10;;
32365;SDS011;18837;46.832;16.838;2023-07-08T12:48:38;6.87;;;2.70;;
32365;SDS011;18837;46.832;16.838;2023-07-08T12:51:05;4.83;;;2.73;;
32365;SDS011;18837;46.832;16.838;2023-07-08T12:53:35;4.57;;;2.83;;
32365;SDS011;18837;46.832;16.838;2023-07-08T12:56:01;3.73;;;2.87;;
32365;SDS011;18837;46.832;16.838;2023-07-08T12:58:29;3.13;;;2.73;;
32365;SDS011;18837;46.832;16.838;2023-07-08T13:00:59;3.37;;;3.07;;
32365;SDS011;18837;46.832;16.838;2023-07-08T13:03:29;3.20;;;2.60;;
32365;SDS011;18837;46.832;16.838;2023-07-08T13:05:59;3.73;;;2.63;;
32365;SDS011;18837;46.832;16.838;2023-07-08T13:08:27;3.30;;;2.80;;
32365;SDS011;18837;46.832;16.838;2023-07-08T13:10:57;3.00;;;2.60;;
32365;SDS011;18837;46.832;16.838;2023-07-08T13:13:25;7.77;;;2.80;;
32365;SDS011;18837;46.832;16.838;2023-07-08T13:15:54;6.20;;;3.10;;
32365;SDS011;18837;46.832;16.838;2023-07-08T13:18:34;3.43;;;2.90;;
32365;SDS011;18837;46.832;16.838;2023-07-08T13:21:02;2.90;;;2.33;;
32365;SDS011;18837;46.832;16.838;2023-07-08T13:23:32;3.47;;;2.87;;
32365;SDS011;18837;46.832;16.838;2023-07-08T13:26:00;3.53;;;3.00;;
32365;SDS011;18837;46.832;16.838;2023-07-08T13:28:27;5.10;;;2.50;;
32365;SDS011;18837;46.832;16.838;2023-07-08T13:31:01;3.10;;;2.80;;
32365;SDS011;18837;46.832;16.838;2023-07-08T13:33:38;3.00;;;2.70;;
32365;SDS011;18837;46.832;16.838;2023-07-08T13:36:10;3.43;;;2.47;;
32365;SDS011;18837;46.832;16.838;2023-07-08T13:38:43;2.80;;;2.47;;
32365;SDS011;18837;46.832;16.838;2023-07-08T13:41:10;2.83;;;2.63;;
32365;SDS011;18837;46.832;16.838;2023-07-08T13:43:40;3.03;;;2.60;;
32365;SDS011;18837;46.832;16.838;2023-07-08T13:46:24;3.90;;;2.33;;
32365;SDS011;18837;46.832;16.838;2023-07-08T13:48:56;3.20;;;2.90;;
32365;SDS011;18837;46.832;16.838;2023-07-08T13:51:29;3.27;;;2.50;;
32365;SDS011;18837;46.832;16.838;2023-07-08T13:54:00;2.93;;;2.60;;
32365;SDS011;18837;46.832;16.838;2023-07-08T13:56:34;4.70;;;2.70;;
32365;SDS011;18837;46.832;16.838;2023-07-08T13:59:01;3.00;;;2.53;;
32365;SDS011;18837;46.832;16.838;2023-07-08T14:01:29;2.80;;;2.60;;
32365;SDS011;18837;46.832;16.838;2023-07-08T14:03:57;3.17;;;2.87;;
32365;SDS011;18837;46.832;16.838;2023-07-08T14:06:28;3.00;;;2.67;;
32365;SDS011;18837;46.832;16.838;2023-07-08T14:08:57;3.10;;;2.80;;
32365;SDS011;18837;46.832;16.838;2023-07-08T14:11:26;3.07;;;2.77;;
32365;SDS011;18837;46.832;16.838;2023-07-08T14:13:51;4.10;;;2.70;;
32365;SDS011;18837;46.832;16.838;2023-07-08T14:18:47;3.10;;;2.80;;
32365;SDS011;18837;46.832;16.838;2023-07-08T14:21:13;5.20;;;3.23;;
32365;SDS011;18837;46.832;16.838;2023-07-08T14:23:39;4.70;;;2.73;;
32365;SDS011;18837;46.832;16.838;2023-07-08T14:26:07;3.30;;;2.63;;
32365;SDS011;18837;46.832;16.838;2023-07-08T14:28:37;3.00;;;2.70;;
32365;SDS011;18837;46.832;16.838;2023-07-08T14:31:04;2.73;;;2.50;;
32365;SDS011;18837;46.832;16.838;2023-07-08T14:33:37;4.03;;;3.17;;
32365;SDS011;18837;46.832;16.838;2023-07-08T14:36:08;3.90;;;2.90;;
32365;SDS011;18837;46.832;16.838;2023-07-08T14:38:35;3.00;;;2.70;;
32365;SDS011;18837;46.832;16.838;2023-07-08T14:41:01;3.33;;;2.83;;
32365;SDS011;18837;46.832;16.838;2023-07-08T14:43:28;2.60;;;2.40;;
32365;SDS011;18837;46.832;16.838;2023-07-08T14:45:55;3.33;;;2.57;;
32365;SDS011;18837;46.832;16.838;2023-07-08T14:48:24;3.27;;;2.70;;
32365;SDS011;18837;46.832;16.838;2023-07-08T14:50:50;3.20;;;2.70;;
32365;SDS011;18837;46.832;16.838;2023-07-08T14:53:16;3.40;;;2.97;;
32365;SDS011;18837;46.832;16.838;2023-07-08T14:55:46;3.00;;;2.40;;
32365;SDS011;18837;46.832;16.838;2023-07-08T14:58:20;2.93;;;2.70;;
32365;SDS011;18837;46.832;16.838;2023-07-08T15:00:49;2.83;;;2.63;;
32365;SDS011;18837;46.832;16.838;2023-07-08T15:03:16;2.93;;;2.60;;
32365;SDS011;18837;46.832;16.838;2023-07-08T15:05:42;2.60;;;2.40;;
32365;SDS011;18837;46.832;16.838;2023-07-08T15:08:08;2.77;;;2.57;;
32365;SDS011;18837;46.832;16.838;2023-07-08T15:10:34;4.93;;;2.73;;
32365;SDS011;18837;46.832;16.838;2023-07-08T15:13:01;3.40;;;2.67;;
32365;SDS011;18837;46.832;16.838;2023-07-08T15:15:32;3.63;;;2.87;;
32365;SDS011;18837;46.832;16.838;2023-07-08T15:18:01;2.77;;;2.53;;
32365;SDS011;18837;46.832;16.838;2023-07-08T15:20:35;2.93;;;2.67;;
32365;SDS011;18837;46.832;16.838;2023-07-08T15:23:01;3.60;;;2.60;;
32365;SDS011;18837;46.832;16.838;2023-07-08T15:25:27;3.13;;;2.77;;
32365;SDS011;18837;46.832;16.838;2023-07-08T15:27:54;3.27;;;2.97;;
32365;SDS011;18837;46.832;16.838;2023-07-08T15:30:26;2.53;;;2.33;;
32365;SDS011;18837;46.832;16.838;2023-07-08T15:32:53;3.10;;;2.80;;
32365;SDS011;18837;46.832;16.838;2023-07-08T15:35:20;3.10;;;2.80;;
32365;SDS011;18837;46.832;16.838;2023-07-08T15:37:51;2.90;;;2.60;;
32365;SDS011;18837;46.832;16.838;2023-07-08T15:40:18;3.20;;;2.90;;
32365;SDS011;18837;46.832;16.838;2023-07-08T15:42:48;2.90;;;2.60;;
32365;SDS011;18837;46.832;16.838;2023-07-08T15:45:23;3.00;;;2.70;;
32365;SDS011;18837;46.832;16.838;2023-07-08T15:47:58;2.70;;;2.50;;